sensor_id;sensor_type;location;lat;lon;timestamp;temperature;humidity
53978;DHT22;39886;47.984;-1.586;2023-02-25T00:00:24;18.00;60.50
53978;DHT22;39886;47.984;-1.586;2023-02-25T00:02:50;18.00;60.50
53978;DHT22;39886;47.984;-1.586;2023-02-25T00:05:17;18.00;60.50
53978;DHT22;39886;47.984;-1.586;2023-02-25T00:07:44;17.90;60.50
53978;DHT22;39886;47.984;-1.586;2023-02-25T00:10:11;17.90;60.50
53978;DHT22;39886;47.984;-1.586;2023-02-25T00:12:38;18.00;60.60
53978;DHT22;39886;47.984;-1.586;2023-02-25T00:15:05;17.90;60.50
53978;DHT22;39886;47.984;-1.586;2023-02-25T00:17:31;17.90;60.50
53978;DHT22;39886;47.984;-1.586;2023-02-25T00:19:57;17.90;60.50
53978;DHT22;39886;47.984;-1.586;2023-02-25T00:22:24;17.90;60.60
53978;DHT22;39886;47.984;-1.586;2023-02-25T00:24:54;17.90;60.60
53978;DHT22;39886;47.984;-1.586;2023-02-25T00:27:21;17.80;60.50
53978;DHT22;39886;47.984;-1.586;2023-02-25T00:29:51;17.80;60.50
53978;DHT22;39886;47.984;-1.586;2023-02-25T00:32:17;17.90;60.60
53978;DHT22;39886;47.984;-1.586;2023-02-25T00:34:43;17.80;60.60
53978;DHT22;39886;47.984;-1.586;2023-02-25T00:37:08;17.80;60.60
53978;DHT22;39886;47.984;-1.586;2023-02-25T00:39:34;17.80;60.60
53978;DHT22;39886;47.984;-1.586;2023-02-25T00:42:10;17.80;60.60
53978;DHT22;39886;47.984;-1.586;2023-02-25T00:44:36;17.80;60.60
53978;DHT22;39886;47.984;-1.586;2023-02-25T00:47:03;17.80;60.60
53978;DHT22;39886;47.984;-1.586;2023-02-25T00:49:29;17.80;60.60
53978;DHT22;39886;47.984;-1.586;2023-02-25T00:51:54;17.80;60.60
53978;DHT22;39886;47.984;-1.586;2023-02-25T00:54:21;17.70;60.60
53978;DHT22;39886;47.984;-1.586;2023-02-25T00:56:47;17.70;60.60
53978;DHT22;39886;47.984;-1.586;2023-02-25T00:59:13;17.70;60.60
53978;DHT22;39886;47.984;-1.586;2023-02-25T01:01:39;17.70;60.60
53978;DHT22;39886;47.984;-1.586;2023-02-25T01:04:05;17.70;60.60
53978;DHT22;39886;47.984;-1.586;2023-02-25T01:06:32;17.70;60.60
53978;DHT22;39886;47.984;-1.586;2023-02-25T01:08:58;17.70;60.60
53978;DHT22;39886;47.984;-1.586;2023-02-25T01:11:27;17.70;60.60
53978;DHT22;39886;47.984;-1.586;2023-02-25T01:13:58;17.70;60.60
53978;DHT22;39886;47.984;-1.586;2023-02-25T01:16:26;17.70;60.60
53978;DHT22;39886;47.984;-1.586;2023-02-25T01:18:54;17.70;60.60
53978;DHT22;39886;47.984;-1.586;2023-02-25T01:21:22;17.70;60.60
53978;DHT22;39886;47.984;-1.586;2023-02-25T01:23:54;17.70;60.70
53978;DHT22;39886;47.984;-1.586;2023-02-25T01:26:24;17.70;60.60
53978;DHT22;39886;47.984;-1.586;2023-02-25T01:28:50;17.60;60.60
53978;DHT22;39886;47.984;-1.586;2023-02-25T01:31:17;17.60;60.60
53978;DHT22;39886;47.984;-1.586;2023-02-25T01:33:44;17.60;60.60
53978;DHT22;39886;47.984;-1.586;2023-02-25T01:36:09;17.60;60.60
53978;DHT22;39886;47.984;-1.586;2023-02-25T01:38:35;17.60;60.60
53978;DHT22;39886;47.984;-1.586;2023-02-25T01:41:01;17.60;60.60
53978;DHT22;39886;47.984;-1.586;2023-02-25T01:43:28;17.60;60.70
53978;DHT22;39886;47.984;-1.586;2023-02-25T01:45:54;17.60;60.70
53978;DHT22;39886;47.984;-1.586;2023-02-25T01:48:23;17.60;60.60
53978;DHT22;39886;47.984;-1.586;2023-02-25T01:51:15;17.60;60.60
53978;DHT22;39886;47.984;-1.586;2023-02-25T01:53:44;17.60;60.60
53978;DHT22;39886;47.984;-1.586;2023-02-25T01:56:13;17.60;60.60
53978;DHT22;39886;47.984;-1.586;2023-02-25T01:58:42;17.60;60.70
53978;DHT22;39886;47.984;-1.586;2023-02-25T02:01:11;17.60;60.70
53978;DHT22;39886;47.984;-1.586;2023-02-25T02:03:39;17.60;60.70
53978;DHT22;39886;47.984;-1.586;2023-02-25T02:06:17;17.60;60.70
53978;DHT22;39886;47.984;-1.586;2023-02-25T02:08:44;17.60;60.70
53978;DHT22;39886;47.984;-1.586;2023-02-25T02:11:10;17.60;60.70
53978;DHT22;39886;47.984;-1.586;2023-02-25T02:13:39;17.50;60.60
53978;DHT22;39886;47.984;-1.586;2023-02-25T02:18:35;17.50;60.60
53978;DHT22;39886;47.984;-1.586;2023-02-25T02:29:45;17.50;60.60
53978;DHT22;39886;47.984;-1.586;2023-02-25T02:35:17;17.50;60.60
53978;DHT22;39886;47.984;-1.586;2023-02-25T02:45:49;17.50;60.60
53978;DHT22;39886;47.984;-1.586;2023-02-25T02:48:27;17.50;60.70
53978;DHT22;39886;47.984;-1.586;2023-02-25T02:50:57;17.50;60.70
53978;DHT22;39886;47.984;-1.586;2023-02-25T02:53:44;17.50;60.70
53978;DHT22;39886;47.984;-1.586;2023-02-25T02:56:14;17.50;60.60
53978;DHT22;39886;47.984;-1.586;2023-02-25T02:58:45;17.50;60.60
53978;DHT22;39886;47.984;-1.586;2023-02-25T03:01:17;17.50;60.70
53978;DHT22;39886;47.984;-1.586;2023-02-25T03:03:47;17.50;60.60
53978;DHT22;39886;47.984;-1.586;2023-02-25T03:06:24;17.40;60.60
53978;DHT22;39886;47.984;-1.586;2023-02-25T03:08:57;17.40;60.60
53978;DHT22;39886;47.984;-1.586;2023-02-25T03:11:23;17.40;60.60
53978;DHT22;39886;47.984;-1.586;2023-02-25T03:13:50;17.40;60.60
53978;DHT22;39886;47.984;-1.586;2023-02-25T03:16:21;17.40;60.60
53978;DHT22;39886;47.984;-1.586;2023-02-25T03:21:41;17.40;60.60
53978;DHT22;39886;47.984;-1.586;2023-02-25T03:24:19;17.40;60.60
53978;DHT22;39886;47.984;-1.586;2023-02-25T03:26:50;17.40;60.60
53978;DHT22;39886;47.984;-1.586;2023-02-25T03:29:19;17.40;60.60
53978;DHT22;39886;47.984;-1.586;2023-02-25T03:32:12;17.40;60.60
53978;DHT22;39886;47.984;-1.586;2023-02-25T03:34:44;17.40;60.50
53978;DHT22;39886;47.984;-1.586;2023-02-25T03:37:16;17.40;60.60
53978;DHT22;39886;47.984;-1.586;2023-02-25T03:39:47;17.40;60.60
53978;DHT22;39886;47.984;-1.586;2023-02-25T03:42:18;17.30;60.50
53978;DHT22;39886;47.984;-1.586;2023-02-25T03:44:50;17.40;60.60
53978;DHT22;39886;47.984;-1.586;2023-02-25T03:47:18;17.40;60.60
53978;DHT22;39886;47.984;-1.586;2023-02-25T03:52:31;17.40;60.50
53978;DHT22;39886;47.984;-1.586;2023-02-25T03:54:57;17.40;60.50
53978;DHT22;39886;47.984;-1.586;2023-02-25T03:57:26;17.40;60.50
53978;DHT22;39886;47.984;-1.586;2023-02-25T03:59:58;17.40;60.50
53978;DHT22;39886;47.984;-1.586;2023-02-25T04:02:27;17.40;60.50
53978;DHT22;39886;47.984;-1.586;2023-02-25T04:04:54;17.40;60.50
53978;DHT22;39886;47.984;-1.586;2023-02-25T04:07:20;17.40;60.60
53978;DHT22;39886;47.984;-1.586;2023-02-25T04:09:45;17.40;60.50
53978;DHT22;39886;47.984;-1.586;2023-02-25T04:12:11;17.40;60.50
53978;DHT22;39886;47.984;-1.586;2023-02-25T04:14:37;17.30;60.50
53978;DHT22;39886;47.984;-1.586;2023-02-25T04:17:03;17.40;60.60
53978;DHT22;39886;47.984;-1.586;2023-02-25T04:19:30;17.40;60.50
53978;DHT22;39886;47.984;-1.586;2023-02-25T04:21:57;17.40;60.50
53978;DHT22;39886;47.984;-1.586;2023-02-25T04:24:22;17.40;60.50
53978;DHT22;39886;47.984;-1.586;2023-02-25T04:26:48;17.30;60.50
53978;DHT22;39886;47.984;-1.586;2023-02-25T04:29:14;17.40;60.50
53978;DHT22;39886;47.984;-1.586;2023-02-25T04:31:40;17.40;60.50
53978;DHT22;39886;47.984;-1.586;2023-02-25T04:34:05;17.40;60.50
53978;DHT22;39886;47.984;-1.586;2023-02-25T04:36:34;17.30;60.50
53978;DHT22;39886;47.984;-1.586;2023-02-25T04:39:02;17.30;60.40
53978;DHT22;39886;47.984;-1.586;2023-02-25T04:41:31;17.30;60.40
53978;DHT22;39886;47.984;-1.586;2023-02-25T04:43:57;17.30;60.50
53978;DHT22;39886;47.984;-1.586;2023-02-25T04:46:24;17.30;60.50
53978;DHT22;39886;47.984;-1.586;2023-02-25T04:48:49;17.30;60.40
53978;DHT22;39886;47.984;-1.586;2023-02-25T04:51:16;17.30;60.40
53978;DHT22;39886;47.984;-1.586;2023-02-25T04:53:42;17.30;60.40
53978;DHT22;39886;47.984;-1.586;2023-02-25T04:56:08;17.30;60.40
53978;DHT22;39886;47.984;-1.586;2023-02-25T04:58:36;17.30;60.40
53978;DHT22;39886;47.984;-1.586;2023-02-25T05:01:04;17.30;60.40
53978;DHT22;39886;47.984;-1.586;2023-02-25T05:03:31;17.30;60.40
53978;DHT22;39886;47.984;-1.586;2023-02-25T05:05:57;17.30;60.40
53978;DHT22;39886;47.984;-1.586;2023-02-25T05:08:23;17.30;60.40
53978;DHT22;39886;47.984;-1.586;2023-02-25T05:10:49;17.30;60.30
53978;DHT22;39886;47.984;-1.586;2023-02-25T05:13:15;17.30;60.40
53978;DHT22;39886;47.984;-1.586;2023-02-25T05:15:41;17.30;60.40
53978;DHT22;39886;47.984;-1.586;2023-02-25T05:18:08;17.30;60.30
53978;DHT22;39886;47.984;-1.586;2023-02-25T05:20:33;17.30;60.30
53978;DHT22;39886;47.984;-1.586;2023-02-25T05:22:59;17.30;60.30
53978;DHT22;39886;47.984;-1.586;2023-02-25T05:25:25;17.30;60.40
53978;DHT22;39886;47.984;-1.586;2023-02-25T05:27:50;17.30;60.30
53978;DHT22;39886;47.984;-1.586;2023-02-25T05:30:16;17.30;60.30
53978;DHT22;39886;47.984;-1.586;2023-02-25T05:32:43;17.30;60.30
53978;DHT22;39886;47.984;-1.586;2023-02-25T05:35:09;17.30;60.30
53978;DHT22;39886;47.984;-1.586;2023-02-25T05:37:36;17.30;60.30
53978;DHT22;39886;47.984;-1.586;2023-02-25T05:40:02;17.30;60.30
53978;DHT22;39886;47.984;-1.586;2023-02-25T05:42:28;17.30;60.30
53978;DHT22;39886;47.984;-1.586;2023-02-25T05:44:54;17.30;60.30
53978;DHT22;39886;47.984;-1.586;2023-02-25T05:47:20;17.30;60.30
53978;DHT22;39886;47.984;-1.586;2023-02-25T05:49:46;17.30;60.30
53978;DHT22;39886;47.984;-1.586;2023-02-25T05:52:14;17.20;60.20
53978;DHT22;39886;47.984;-1.586;2023-02-25T05:54:40;17.30;60.30
53978;DHT22;39886;47.984;-1.586;2023-02-25T05:57:06;17.20;60.20
53978;DHT22;39886;47.984;-1.586;2023-02-25T05:59:32;17.30;60.30
53978;DHT22;39886;47.984;-1.586;2023-02-25T06:01:58;17.30;60.30
53978;DHT22;39886;47.984;-1.586;2023-02-25T06:04:24;17.30;60.20
53978;DHT22;39886;47.984;-1.586;2023-02-25T06:06:49;17.20;60.20
53978;DHT22;39886;47.984;-1.586;2023-02-25T06:09:19;17.20;60.30
53978;DHT22;39886;47.984;-1.586;2023-02-25T06:11:46;17.20;60.10
53978;DHT22;39886;47.984;-1.586;2023-02-25T06:14:13;17.20;60.20
53978;DHT22;39886;47.984;-1.586;2023-02-25T06:16:39;17.20;60.10
53978;DHT22;39886;47.984;-1.586;2023-02-25T06:19:05;17.20;60.20
53978;DHT22;39886;47.984;-1.586;2023-02-25T06:21:32;17.20;60.10
53978;DHT22;39886;47.984;-1.586;2023-02-25T06:23:59;17.20;60.10
53978;DHT22;39886;47.984;-1.586;2023-02-25T06:26:26;17.20;60.10
53978;DHT22;39886;47.984;-1.586;2023-02-25T06:28:52;17.20;60.10
53978;DHT22;39886;47.984;-1.586;2023-02-25T06:31:19;17.20;60.10
53978;DHT22;39886;47.984;-1.586;2023-02-25T06:33:47;17.20;60.10
53978;DHT22;39886;47.984;-1.586;2023-02-25T06:36:15;17.20;60.10
53978;DHT22;39886;47.984;-1.586;2023-02-25T06:38:42;17.20;60.10
53978;DHT22;39886;47.984;-1.586;2023-02-25T06:41:11;17.20;60.10
53978;DHT22;39886;47.984;-1.586;2023-02-25T06:43:40;17.20;60.10
53978;DHT22;39886;47.984;-1.586;2023-02-25T06:46:08;17.20;60.10
53978;DHT22;39886;47.984;-1.586;2023-02-25T06:48:34;17.20;60.00
53978;DHT22;39886;47.984;-1.586;2023-02-25T06:51:00;17.20;60.10
53978;DHT22;39886;47.984;-1.586;2023-02-25T06:53:27;17.20;60.10
53978;DHT22;39886;47.984;-1.586;2023-02-25T06:55:53;17.20;60.00
53978;DHT22;39886;47.984;-1.586;2023-02-25T06:58:19;17.20;60.00
53978;DHT22;39886;47.984;-1.586;2023-02-25T07:00:45;17.20;60.10
53978;DHT22;39886;47.984;-1.586;2023-02-25T07:03:12;17.20;60.00
53978;DHT22;39886;47.984;-1.586;2023-02-25T07:05:38;17.20;60.00
53978;DHT22;39886;47.984;-1.586;2023-02-25T07:08:04;17.20;60.00
53978;DHT22;39886;47.984;-1.586;2023-02-25T07:10:30;17.20;60.00
53978;DHT22;39886;47.984;-1.586;2023-02-25T07:12:56;17.20;60.00
53978;DHT22;39886;47.984;-1.586;2023-02-25T07:15:22;17.20;60.00
53978;DHT22;39886;47.984;-1.586;2023-02-25T07:17:47;17.20;60.00
53978;DHT22;39886;47.984;-1.586;2023-02-25T07:20:14;17.20;60.00
53978;DHT22;39886;47.984;-1.586;2023-02-25T07:22:40;17.20;60.00
53978;DHT22;39886;47.984;-1.586;2023-02-25T07:25:10;17.20;60.00
53978;DHT22;39886;47.984;-1.586;2023-02-25T07:27:39;17.20;59.90
53978;DHT22;39886;47.984;-1.586;2023-02-25T07:30:06;17.20;60.00
53978;DHT22;39886;47.984;-1.586;2023-02-25T07:32:32;17.20;59.90
53978;DHT22;39886;47.984;-1.586;2023-02-25T07:34:58;17.20;59.90
53978;DHT22;39886;47.984;-1.586;2023-02-25T07:37:23;17.20;59.90
53978;DHT22;39886;47.984;-1.586;2023-02-25T07:39:49;17.20;59.90
53978;DHT22;39886;47.984;-1.586;2023-02-25T07:42:15;17.20;59.90
53978;DHT22;39886;47.984;-1.586;2023-02-25T07:44:41;17.20;59.90
53978;DHT22;39886;47.984;-1.586;2023-02-25T07:47:07;17.20;59.90
53978;DHT22;39886;47.984;-1.586;2023-02-25T07:49:32;17.20;59.90
53978;DHT22;39886;47.984;-1.586;2023-02-25T07:51:58;17.20;59.90
53978;DHT22;39886;47.984;-1.586;2023-02-25T07:54:25;17.20;59.80
53978;DHT22;39886;47.984;-1.586;2023-02-25T07:56:51;17.20;59.80
53978;DHT22;39886;47.984;-1.586;2023-02-25T07:59:17;17.20;59.80
53978;DHT22;39886;47.984;-1.586;2023-02-25T08:01:44;17.20;59.80
53978;DHT22;39886;47.984;-1.586;2023-02-25T08:04:10;17.20;59.80
53978;DHT22;39886;47.984;-1.586;2023-02-25T08:06:38;17.20;59.70
53978;DHT22;39886;47.984;-1.586;2023-02-25T08:09:05;17.20;59.70
53978;DHT22;39886;47.984;-1.586;2023-02-25T08:11:31;17.20;59.70
53978;DHT22;39886;47.984;-1.586;2023-02-25T08:14:01;17.20;59.70
53978;DHT22;39886;47.984;-1.586;2023-02-25T08:16:27;17.20;59.70
53978;DHT22;39886;47.984;-1.586;2023-02-25T08:18:53;17.20;59.60
53978;DHT22;39886;47.984;-1.586;2023-02-25T08:21:21;17.20;60.30
53978;DHT22;39886;47.984;-1.586;2023-02-25T08:23:47;17.20;59.60
53978;DHT22;39886;47.984;-1.586;2023-02-25T08:26:14;17.20;59.60
53978;DHT22;39886;47.984;-1.586;2023-02-25T08:28:42;17.20;59.60
53978;DHT22;39886;47.984;-1.586;2023-02-25T08:31:09;17.20;59.60
53978;DHT22;39886;47.984;-1.586;2023-02-25T08:33:37;17.20;59.60
53978;DHT22;39886;47.984;-1.586;2023-02-25T08:36:25;17.20;59.50
53978;DHT22;39886;47.984;-1.586;2023-02-25T08:38:52;17.20;59.50
53978;DHT22;39886;47.984;-1.586;2023-02-25T08:41:20;17.20;59.50
53978;DHT22;39886;47.984;-1.586;2023-02-25T08:43:51;17.20;59.50
53978;DHT22;39886;47.984;-1.586;2023-02-25T08:46:22;17.20;59.40
53978;DHT22;39886;47.984;-1.586;2023-02-25T08:48:49;17.20;59.40
53978;DHT22;39886;47.984;-1.586;2023-02-25T08:51:15;17.20;59.40
53978;DHT22;39886;47.984;-1.586;2023-02-25T08:53:41;17.20;59.40
53978;DHT22;39886;47.984;-1.586;2023-02-25T08:56:09;17.20;59.30
53978;DHT22;39886;47.984;-1.586;2023-02-25T08:58:36;17.20;59.30
53978;DHT22;39886;47.984;-1.586;2023-02-25T09:01:13;17.20;59.30
53978;DHT22;39886;47.984;-1.586;2023-02-25T09:03:42;17.20;59.30
53978;DHT22;39886;47.984;-1.586;2023-02-25T09:06:25;17.20;59.20
53978;DHT22;39886;47.984;-1.586;2023-02-25T09:08:53;17.30;59.30
53978;DHT22;39886;47.984;-1.586;2023-02-25T09:11:20;17.30;59.20
53978;DHT22;39886;47.984;-1.586;2023-02-25T09:13:46;17.30;59.20
53978;DHT22;39886;47.984;-1.586;2023-02-25T09:16:12;17.30;59.20
53978;DHT22;39886;47.984;-1.586;2023-02-25T09:18:43;17.20;59.10
53978;DHT22;39886;47.984;-1.586;2023-02-25T09:21:10;17.30;59.10
53978;DHT22;39886;47.984;-1.586;2023-02-25T09:23:36;17.30;59.10
53978;DHT22;39886;47.984;-1.586;2023-02-25T09:26:03;17.30;59.00
53978;DHT22;39886;47.984;-1.586;2023-02-25T09:28:29;17.30;59.00
53978;DHT22;39886;47.984;-1.586;2023-02-25T09:30:56;17.30;59.00
53978;DHT22;39886;47.984;-1.586;2023-02-25T09:33:23;17.30;59.00
53978;DHT22;39886;47.984;-1.586;2023-02-25T09:35:49;17.30;58.90
53978;DHT22;39886;47.984;-1.586;2023-02-25T09:38:15;17.30;58.90
53978;DHT22;39886;47.984;-1.586;2023-02-25T09:40:45;17.30;58.90
53978;DHT22;39886;47.984;-1.586;2023-02-25T09:43:24;17.40;58.90
53978;DHT22;39886;47.984;-1.586;2023-02-25T09:45:56;17.40;58.90
53978;DHT22;39886;47.984;-1.586;2023-02-25T09:48:30;17.30;58.80
53978;DHT22;39886;47.984;-1.586;2023-02-25T09:51:03;17.30;58.70
53978;DHT22;39886;47.984;-1.586;2023-02-25T09:53:41;17.40;58.70
53978;DHT22;39886;47.984;-1.586;2023-02-25T09:56:11;17.40;58.70
53978;DHT22;39886;47.984;-1.586;2023-02-25T09:58:42;17.40;58.70
53978;DHT22;39886;47.984;-1.586;2023-02-25T10:14:54;17.40;58.50
53978;DHT22;39886;47.984;-1.586;2023-02-25T10:17:28;17.40;58.50
53978;DHT22;39886;47.984;-1.586;2023-02-25T10:22:43;17.30;58.40
53978;DHT22;39886;47.984;-1.586;2023-02-25T10:25:17;17.40;58.30
53978;DHT22;39886;47.984;-1.586;2023-02-25T10:27:54;17.40;58.30
53978;DHT22;39886;47.984;-1.586;2023-02-25T10:30:27;17.40;58.30
53978;DHT22;39886;47.984;-1.586;2023-02-25T10:32:59;17.40;58.20
53978;DHT22;39886;47.984;-1.586;2023-02-25T10:35:32;17.40;58.20
53978;DHT22;39886;47.984;-1.586;2023-02-25T10:37:59;17.40;58.20
53978;DHT22;39886;47.984;-1.586;2023-02-25T10:40:25;17.40;58.10
53978;DHT22;39886;47.984;-1.586;2023-02-25T10:42:54;17.40;58.10
53978;DHT22;39886;47.984;-1.586;2023-02-25T10:45:25;17.40;58.00
53978;DHT22;39886;47.984;-1.586;2023-02-25T10:48:11;17.40;58.00
53978;DHT22;39886;47.984;-1.586;2023-02-25T10:50:38;17.50;58.00
53978;DHT22;39886;47.984;-1.586;2023-02-25T10:53:15;17.50;58.00
53978;DHT22;39886;47.984;-1.586;2023-02-25T10:55:47;17.50;57.90
53978;DHT22;39886;47.984;-1.586;2023-02-25T11:03:46;17.50;57.80
53978;DHT22;39886;47.984;-1.586;2023-02-25T11:06:23;17.50;57.80
53978;DHT22;39886;47.984;-1.586;2023-02-25T11:08:51;17.50;57.80
53978;DHT22;39886;47.984;-1.586;2023-02-25T11:11:28;17.50;57.70
53978;DHT22;39886;47.984;-1.586;2023-02-25T11:16:35;17.60;57.60
53978;DHT22;39886;47.984;-1.586;2023-02-25T11:19:19;17.50;57.50
53978;DHT22;39886;47.984;-1.586;2023-02-25T11:21:48;17.50;57.50
53978;DHT22;39886;47.984;-1.586;2023-02-25T11:24:27;17.60;57.40
53978;DHT22;39886;47.984;-1.586;2023-02-25T11:26:56;17.60;57.40
53978;DHT22;39886;47.984;-1.586;2023-02-25T11:29:31;17.60;57.30
53978;DHT22;39886;47.984;-1.586;2023-02-25T11:32:01;17.50;57.30
53978;DHT22;39886;47.984;-1.586;2023-02-25T11:34:35;17.60;57.30
53978;DHT22;39886;47.984;-1.586;2023-02-25T11:37:37;17.60;57.30
53978;DHT22;39886;47.984;-1.586;2023-02-25T11:40:28;17.60;57.30
53978;DHT22;39886;47.984;-1.586;2023-02-25T11:45:36;17.60;57.10
53978;DHT22;39886;47.984;-1.586;2023-02-25T11:48:12;17.60;57.00
53978;DHT22;39886;47.984;-1.586;2023-02-25T11:50:56;17.60;57.00
53978;DHT22;39886;47.984;-1.586;2023-02-25T11:56:34;17.60;56.90
53978;DHT22;39886;47.984;-1.586;2023-02-25T12:04:43;17.70;56.90
53978;DHT22;39886;47.984;-1.586;2023-02-25T12:10:02;17.70;56.70
53978;DHT22;39886;47.984;-1.586;2023-02-25T12:15:18;17.70;56.60
53978;DHT22;39886;47.984;-1.586;2023-02-25T12:24:18;17.70;56.60
53978;DHT22;39886;47.984;-1.586;2023-02-25T12:52:23;17.80;56.30
53978;DHT22;39886;47.984;-1.586;2023-02-25T12:55:18;17.80;56.10
53978;DHT22;39886;47.984;-1.586;2023-02-25T12:58:17;17.80;56.20
53978;DHT22;39886;47.984;-1.586;2023-02-25T13:01:09;17.80;56.00
53978;DHT22;39886;47.984;-1.586;2023-02-25T13:15:17;17.80;55.80
53978;DHT22;39886;47.984;-1.586;2023-02-25T13:20:47;17.80;55.90
53978;DHT22;39886;47.984;-1.586;2023-02-25T13:34:41;17.80;55.90
53978;DHT22;39886;47.984;-1.586;2023-02-25T13:37:27;17.80;55.90
53978;DHT22;39886;47.984;-1.586;2023-02-25T14:00:36;17.80;55.80
53978;DHT22;39886;47.984;-1.586;2023-02-25T14:06:34;17.70;55.80
53978;DHT22;39886;47.984;-1.586;2023-02-25T14:23:14;17.80;55.80
53978;DHT22;39886;47.984;-1.586;2023-02-25T14:26:01;17.80;55.50
53978;DHT22;39886;47.984;-1.586;2023-02-25T14:31:30;17.90;55.20
53978;DHT22;39886;47.984;-1.586;2023-02-25T14:34:22;17.90;55.10
53978;DHT22;39886;47.984;-1.586;2023-02-25T14:40:06;17.90;55.10
53978;DHT22;39886;47.984;-1.586;2023-02-25T14:45:30;17.90;55.20
53978;DHT22;39886;47.984;-1.586;2023-02-25T14:48:01;17.90;55.20
53978;DHT22;39886;47.984;-1.586;2023-02-25T15:10:07;17.80;55.30
53978;DHT22;39886;47.984;-1.586;2023-02-25T15:20:49;17.80;55.30
53978;DHT22;39886;47.984;-1.586;2023-02-25T15:23:17;17.70;55.20
53978;DHT22;39886;47.984;-1.586;2023-02-25T15:25:51;17.70;55.20
53978;DHT22;39886;47.984;-1.586;2023-02-25T15:33:44;17.70;55.10
53978;DHT22;39886;47.984;-1.586;2023-02-25T15:38:44;17.70;55.20
53978;DHT22;39886;47.984;-1.586;2023-02-25T15:43:53;17.70;55.20
53978;DHT22;39886;47.984;-1.586;2023-02-25T15:51:44;17.70;55.30
53978;DHT22;39886;47.984;-1.586;2023-02-25T16:05:04;17.60;55.30
53978;DHT22;39886;47.984;-1.586;2023-02-25T16:07:44;17.60;55.30
53978;DHT22;39886;47.984;-1.586;2023-02-25T16:12:44;17.60;55.30
53978;DHT22;39886;47.984;-1.586;2023-02-25T16:17:50;17.60;55.30
53978;DHT22;39886;47.984;-1.586;2023-02-25T16:20:18;17.60;55.30
53978;DHT22;39886;47.984;-1.586;2023-02-25T16:22:46;17.60;55.30
53978;DHT22;39886;47.984;-1.586;2023-02-25T16:25:15;17.60;55.30
53978;DHT22;39886;47.984;-1.586;2023-02-25T16:27:53;17.60;55.30
53978;DHT22;39886;47.984;-1.586;2023-02-25T16:30:38;17.60;55.40
53978;DHT22;39886;47.984;-1.586;2023-02-25T16:33:29;17.60;55.40
53978;DHT22;39886;47.984;-1.586;2023-02-25T16:39:19;17.50;55.40
53978;DHT22;39886;47.984;-1.586;2023-02-25T16:41:47;17.50;55.40
53978;DHT22;39886;47.984;-1.586;2023-02-25T16:44:35;17.50;55.40
53978;DHT22;39886;47.984;-1.586;2023-02-25T16:47:23;17.50;55.40
53978;DHT22;39886;47.984;-1.586;2023-02-25T16:49:51;17.50;55.40
53978;DHT22;39886;47.984;-1.586;2023-02-25T16:52:30;17.50;55.40
53978;DHT22;39886;47.984;-1.586;2023-02-25T16:55:00;17.50;55.40
53978;DHT22;39886;47.984;-1.586;2023-02-25T16:57:29;17.50;55.50
53978;DHT22;39886;47.984;-1.586;2023-02-25T17:00:19;17.50;55.50
53978;DHT22;39886;47.984;-1.586;2023-02-25T17:02:50;17.50;55.50
53978;DHT22;39886;47.984;-1.586;2023-02-25T17:07:57;17.50;55.40
53978;DHT22;39886;47.984;-1.586;2023-02-25T17:10:41;17.40;55.40
53978;DHT22;39886;47.984;-1.586;2023-02-25T17:13:38;17.40;55.40
53978;DHT22;39886;47.984;-1.586;2023-02-25T17:16:05;17.40;55.50
53978;DHT22;39886;47.984;-1.586;2023-02-25T17:18:41;17.40;55.50
53978;DHT22;39886;47.984;-1.586;2023-02-25T17:21:23;17.40;55.50
53978;DHT22;39886;47.984;-1.586;2023-02-25T17:23:49;17.40;55.50
53978;DHT22;39886;47.984;-1.586;2023-02-25T17:26:16;17.30;55.40
53978;DHT22;39886;47.984;-1.586;2023-02-25T17:28:48;17.40;55.50
53978;DHT22;39886;47.984;-1.586;2023-02-25T17:31:18;17.40;55.50
53978;DHT22;39886;47.984;-1.586;2023-02-25T17:33:52;17.30;55.50
53978;DHT22;39886;47.984;-1.586;2023-02-25T17:36:25;17.40;55.50
53978;DHT22;39886;47.984;-1.586;2023-02-25T17:38:55;17.30;55.50
53978;DHT22;39886;47.984;-1.586;2023-02-25T17:41:22;17.30;55.50
53978;DHT22;39886;47.984;-1.586;2023-02-25T17:43:49;17.30;55.50
53978;DHT22;39886;47.984;-1.586;2023-02-25T17:46:34;17.30;55.50
53978;DHT22;39886;47.984;-1.586;2023-02-25T17:49:29;17.30;55.50
53978;DHT22;39886;47.984;-1.586;2023-02-25T17:51:58;17.30;55.60
53978;DHT22;39886;47.984;-1.586;2023-02-25T17:54:27;17.30;55.60
53978;DHT22;39886;47.984;-1.586;2023-02-25T17:56:59;17.30;55.50
53978;DHT22;39886;47.984;-1.586;2023-02-25T17:59:36;17.30;55.60
53978;DHT22;39886;47.984;-1.586;2023-02-25T18:02:31;17.30;55.60
53978;DHT22;39886;47.984;-1.586;2023-02-25T18:05:39;17.20;55.60
53978;DHT22;39886;47.984;-1.586;2023-02-25T18:08:15;17.20;55.70
53978;DHT22;39886;47.984;-1.586;2023-02-25T18:10:47;17.20;55.60
53978;DHT22;39886;47.984;-1.586;2023-02-25T18:13:33;17.20;55.60
53978;DHT22;39886;47.984;-1.586;2023-02-25T18:16:34;17.20;55.70
53978;DHT22;39886;47.984;-1.586;2023-02-25T18:19:02;17.20;55.60
53978;DHT22;39886;47.984;-1.586;2023-02-25T18:21:38;17.20;55.70
53978;DHT22;39886;47.984;-1.586;2023-02-25T18:24:04;17.20;55.60
53978;DHT22;39886;47.984;-1.586;2023-02-25T18:26:30;17.20;55.70
53978;DHT22;39886;47.984;-1.586;2023-02-25T18:28:56;17.20;55.60
53978;DHT22;39886;47.984;-1.586;2023-02-25T18:31:22;17.20;55.60
53978;DHT22;39886;47.984;-1.586;2023-02-25T18:33:48;17.20;55.70
53978;DHT22;39886;47.984;-1.586;2023-02-25T18:36:22;17.10;55.60
53978;DHT22;39886;47.984;-1.586;2023-02-25T18:38:51;17.10;55.60
53978;DHT22;39886;47.984;-1.586;2023-02-25T18:41:17;17.10;55.60
53978;DHT22;39886;47.984;-1.586;2023-02-25T18:43:43;17.10;55.60
53978;DHT22;39886;47.984;-1.586;2023-02-25T18:46:10;17.10;55.60
53978;DHT22;39886;47.984;-1.586;2023-02-25T18:48:36;17.10;55.60
53978;DHT22;39886;47.984;-1.586;2023-02-25T18:51:02;17.10;55.60
53978;DHT22;39886;47.984;-1.586;2023-02-25T18:53:30;17.10;55.60
53978;DHT22;39886;47.984;-1.586;2023-02-25T18:55:57;17.10;55.60
53978;DHT22;39886;47.984;-1.586;2023-02-25T18:58:23;17.10;55.60
53978;DHT22;39886;47.984;-1.586;2023-02-25T19:00:54;17.10;55.70
53978;DHT22;39886;47.984;-1.586;2023-02-25T19:03:24;17.10;55.60
53978;DHT22;39886;47.984;-1.586;2023-02-25T19:05:51;17.10;55.60
53978;DHT22;39886;47.984;-1.586;2023-02-25T19:08:17;17.00;55.60
53978;DHT22;39886;47.984;-1.586;2023-02-25T19:10:44;17.00;55.60
53978;DHT22;39886;47.984;-1.586;2023-02-25T19:13:28;17.00;55.60
53978;DHT22;39886;47.984;-1.586;2023-02-25T19:15:56;17.00;55.60
53978;DHT22;39886;47.984;-1.586;2023-02-25T19:18:22;17.00;55.60
53978;DHT22;39886;47.984;-1.586;2023-02-25T19:20:48;17.00;55.60
53978;DHT22;39886;47.984;-1.586;2023-02-25T19:23:14;17.00;55.70
53978;DHT22;39886;47.984;-1.586;2023-02-25T19:25:42;17.00;55.70
53978;DHT22;39886;47.984;-1.586;2023-02-25T19:28:09;16.90;55.60
53978;DHT22;39886;47.984;-1.586;2023-02-25T19:30:40;17.00;55.80
53978;DHT22;39886;47.984;-1.586;2023-02-25T19:33:07;16.90;55.70